Time;durP1;ratioP1;P1;durP2;ratioP2;P2;SDS_P1;SDS_P2;PMS_P1;PMS_P2;Temp;Humidity;BMP_temperature;BMP_pressure;BME280_temperature;BME280_humidity;BME280_pressure;Samples;Min_cycle;Max_cycle;Signal;HPM_P1;HPM_P2
2022/08/24 00:00:31;;;;;;;4.55;1.60;;;25.60;41.80;;;;;;5011481;28;20064;-50
2022/08/24 00:02:58;;;;;;;5.28;1.92;;;25.60;41.90;;;;;;5016958;28;20413;-50
2022/08/24 00:05:25;;;;;;;4.32;2.25;;;25.60;41.90;;;;;;5019045;28;20418;-53
2022/08/24 00:07:53;;;;;;;5.38;2.10;;;25.50;41.80;;;;;;5017876;28;20413;-52
2022/08/24 00:10:21;;;;;;;5.00;2.03;;;25.50;41.80;;;;;;5013283;28;20054;-53
2022/08/24 00:12:49;;;;;;;3.88;1.88;;;25.50;41.90;;;;;;5018421;28;20061;-51
2022/08/24 00:15:18;;;;;;;4.75;1.80;;;25.50;41.90;;;;;;5013738;28;20049;-48
2022/08/24 00:17:45;;;;;;;11.52;1.90;;;25.50;42.20;;;;;;5020861;28;20053;-51
2022/08/24 00:20:13;;;;;;;4.93;1.90;;;25.40;42.10;;;;;;5015974;28;20490;-51
2022/08/24 00:22:40;;;;;;;4.03;1.63;;;25.30;42.00;;;;;;5021477;28;20418;-51
2022/08/24 00:25:10;;;;;;;3.67;1.80;;;25.30;42.30;;;;;;5018066;28;20064;-51
2022/08/24 00:27:39;;;;;;;5.03;1.95;;;25.30;42.50;;;;;;5022472;28;20064;-50
2022/08/24 00:30:10;;;;;;;4.40;1.85;;;25.30;42.50;;;;;;5010763;28;20055;-52
2022/08/24 00:32:39;;;;;;;4.95;1.90;;;25.20;42.50;;;;;;5021785;28;20068;-49
2022/08/24 00:35:07;;;;;;;2.97;1.95;;;25.30;42.70;;;;;;5022555;28;20053;-50
2022/08/24 00:37:35;;;;;;;5.90;1.88;;;25.20;42.60;;;;;;5022700;28;20512;-51
2022/08/24 00:40:04;;;;;;;4.22;2.17;;;25.20;42.70;;;;;;5018544;28;20046;-51
2022/08/24 00:42:32;;;;;;;4.22;1.73;;;25.20;42.70;;;;;;5024141;28;20493;-48
2022/08/24 00:44:59;;;;;;;3.67;1.80;;;25.10;42.70;;;;;;5018434;28;20493;-49
2022/08/24 00:47:32;;;;;;;7.38;1.88;;;25.10;42.60;;;;;;5021849;28;20045;-52
2022/08/24 00:50:05;;;;;;;4.07;2.15;;;25.10;42.80;;;;;;5016749;28;20050;-51
2022/08/24 00:52:38;;;;;;;8.80;2.10;;;25.00;42.80;;;;;;5021234;28;20080;-52
2022/08/24 00:55:09;;;;;;;3.85;2.20;;;25.00;42.80;;;;;;5015836;28;20060;-54
2022/08/24 00:57:41;;;;;;;4.95;1.90;;;25.00;43.00;;;;;;5016096;28;20988;-52
2022/08/24 01:00:13;;;;;;;5.85;1.98;;;25.00;43.10;;;;;;5010175;28;20050;-50
2022/08/24 01:02:44;;;;;;;8.02;2.17;;;25.00;43.20;;;;;;5018221;28;20084;-49
2022/08/24 01:05:14;;;;;;;4.97;1.60;;;24.90;43.20;;;;;;5021898;28;20053;-54
2022/08/24 01:07:42;;;;;;;5.47;2.30;;;24.80;43.10;;;;;;5019710;28;20056;-56
2022/08/24 01:10:12;;;;;;;5.05;1.73;;;24.80;43.10;;;;;;5019037;28;20050;-52
2022/08/24 01:12:42;;;;;;;5.03;2.20;;;24.80;43.20;;;;;;5021295;28;20041;-53
2022/08/24 01:15:11;;;;;;;6.68;2.28;;;24.70;43.20;;;;;;5014290;28;20053;-49
2022/08/24 01:20:25;;;;;;;5.30;1.90;;;24.70;43.40;;;;;;5024669;28;20055;-50
2022/08/24 01:23:01;;;;;;;4.03;1.88;;;24.60;43.40;;;;;;5022299;28;20124;-51
2022/08/24 01:25:32;;;;;;;3.38;1.80;;;24.50;43.40;;;;;;5013531;28;20049;-53
2022/08/24 01:28:05;;;;;;;5.53;2.28;;;24.50;43.40;;;;;;5020071;28;20064;-49
2022/08/24 01:30:32;;;;;;;4.13;1.80;;;24.50;43.40;;;;;;5010961;28;20057;-49
2022/08/24 01:33:02;;;;;;;5.40;2.00;;;24.50;43.40;;;;;;5020190;28;20057;-52
2022/08/24 01:35:31;;;;;;;4.53;2.22;;;24.40;43.50;;;;;;5018376;28;20054;-51
2022/08/24 01:38:02;;;;;;;6.88;1.90;;;24.40;43.50;;;;;;5020298;28;20409;-51
2022/08/24 01:40:35;;;;;;;5.88;2.30;;;24.40;43.60;;;;;;5012202;28;20052;-51
2022/08/24 01:43:05;;;;;;;4.53;1.97;;;24.30;43.70;;;;;;5019004;28;20057;-52
2022/08/24 01:45:32;;;;;;;4.38;2.10;;;24.30;43.70;;;;;;5018757;28;20056;-54
2022/08/24 01:48:01;;;;;;;4.60;2.10;;;24.30;43.90;;;;;;5016657;28;20053;-52
2022/08/24 01:50:30;;;;;;;5.22;2.15;;;24.30;44.00;;;;;;5014325;28;20112;-51
2022/08/24 01:53:00;;;;;;;5.07;2.17;;;24.30;44.10;;;;;;5020218;28;20497;-53
2022/08/24 01:55:28;;;;;;;4.78;1.65;;;24.30;44.20;;;;;;5019205;28;20054;-52
2022/08/24 01:57:57;;;;;;;5.70;1.70;;;24.20;44.30;;;;;;5020105;28;20072;-52
2022/08/24 02:00:25;;;;;;;3.65;2.15;;;24.30;44.40;;;;;;5017400;28;20723;-51
2022/08/24 02:02:52;;;;;;;6.25;2.33;;;24.20;44.40;;;;;;5017043;28;20505;-48
2022/08/24 02:05:19;;;;;;;4.43;2.05;;;24.20;44.50;;;;;;5020015;28;20065;-50
2022/08/24 02:07:47;;;;;;;2.67;1.70;;;24.20;45.00;;;;;;5018113;28;20072;-50
2022/08/24 02:10:15;;;;;;;3.65;1.75;;;24.20;44.40;;;;;;5015151;28;20517;-51
2022/08/24 02:12:45;;;;;;;5.00;2.22;;;24.20;44.50;;;;;;5017679;28;20431;-53
2022/08/24 02:15:14;;;;;;;6.10;2.00;;;24.10;44.40;;;;;;5017090;28;20045;-53
2022/08/24 02:17:42;;;;;;;6.05;2.10;;;24.10;44.40;;;;;;4981607;28;20053;-50
2022/08/24 02:20:10;;;;;;;5.00;2.20;;;24.10;44.50;;;;;;5011496;28;20045;-47
2022/08/24 02:22:37;;;;;;;4.57;1.95;;;24.10;44.50;;;;;;5020367;28;20057;-54
2022/08/24 02:25:05;;;;;;;4.47;2.10;;;24.00;44.60;;;;;;5018105;28;20065;-54
2022/08/24 02:27:32;;;;;;;4.82;2.10;;;24.00;44.70;;;;;;5018317;28;20495;-53
2022/08/24 02:29:59;;;;;;;7.45;2.50;;;24.00;44.80;;;;;;5014940;28;20046;-54
2022/08/24 02:32:28;;;;;;;3.40;1.80;;;24.00;44.80;;;;;;5019806;28;20057;-55
2022/08/24 02:34:55;;;;;;;3.80;2.30;;;23.90;44.70;;;;;;5020443;28;20057;-53
2022/08/24 02:37:22;;;;;;;3.47;1.80;;;23.90;44.60;;;;;;5019694;28;20414;-53
2022/08/24 02:39:51;;;;;;;4.03;1.90;;;23.90;44.70;;;;;;5011837;28;20049;-52
2022/08/24 02:42:18;;;;;;;4.85;2.30;;;23.90;44.60;;;;;;4996895;28;20054;-55
2022/08/24 02:44:46;;;;;;;5.32;2.35;;;23.80;44.50;;;;;;4998957;28;20502;-55
2022/08/24 02:47:14;;;;;;;4.38;2.45;;;23.80;44.60;;;;;;4989645;28;20065;-56
2022/08/24 02:49:42;;;;;;;7.07;2.20;;;23.70;44.60;;;;;;5007298;28;20405;-53
2022/08/24 02:52:11;;;;;;;6.70;2.70;;;23.70;44.70;;;;;;5014933;28;20055;-52
2022/08/24 02:54:38;;;;;;;3.78;2.13;;;23.70;44.70;;;;;;5019339;28;20057;-51
2022/08/24 02:57:05;;;;;;;4.57;2.25;;;23.70;44.70;;;;;;5016149;28;20532;-49
2022/08/24 02:59:33;;;;;;;4.50;2.45;;;23.70;44.70;;;;;;5016581;28;20049;-52
2022/08/24 03:02:00;;;;;;;5.85;2.30;;;23.60;44.70;;;;;;4994950;28;20053;-54
2022/08/24 03:04:27;;;;;;;4.85;2.40;;;23.60;44.70;;;;;;5002237;28;20045;-51
2022/08/24 03:06:56;;;;;;;5.13;2.35;;;23.60;44.70;;;;;;4993305;28;20422;-54
2022/08/24 03:09:23;;;;;;;5.07;2.72;;;23.60;44.80;;;;;;5011979;28;20405;-53
2022/08/24 03:11:50;;;;;;;4.00;2.15;;;23.50;44.70;;;;;;5004312;28;20060;-53
2022/08/24 03:14:18;;;;;;;5.30;2.55;;;23.50;44.70;;;;;;5002891;28;20060;-50
2022/08/24 03:16:45;;;;;;;3.67;2.30;;;23.50;44.80;;;;;;4993795;28;20060;-49
2022/08/24 03:19:14;;;;;;;8.32;2.78;;;23.40;44.90;;;;;;4994814;28;20053;-53
2022/08/24 03:21:41;;;;;;;4.03;2.38;;;23.40;44.70;;;;;;4992198;28;21567;-50
2022/08/24 03:24:09;;;;;;;5.15;2.22;;;23.40;44.80;;;;;;5002214;28;20058;-49
2022/08/24 03:26:37;;;;;;;5.95;2.70;;;23.40;44.80;;;;;;4995696;28;20077;-49
2022/08/24 03:29:05;;;;;;;5.05;2.70;;;23.30;44.90;;;;;;4989096;28;20054;-50
2022/08/24 03:31:32;;;;;;;5.53;2.55;;;23.30;44.90;;;;;;4996306;28;20049;-52
2022/08/24 03:33:59;;;;;;;6.60;2.72;;;23.30;45.00;;;;;;4994259;28;20050;-54
2022/08/24 03:36:26;;;;;;;4.70;2.45;;;23.30;45.00;;;;;;4990014;28;20426;-54
2022/08/24 03:38:53;;;;;;;16.10;8.18;;;23.20;45.00;;;;;;4988073;28;20058;-52
2022/08/24 03:41:22;;;;;;;9.98;4.97;;;23.20;45.10;;;;;;4989562;28;20059;-52
2022/08/24 03:43:50;;;;;;;5.38;3.00;;;23.20;45.10;;;;;;4996816;28;20064;-47
2022/08/24 03:46:20;;;;;;;6.30;3.25;;;23.10;45.10;;;;;;4990463;28;20057;-51
2022/08/24 03:48:47;;;;;;;5.68;2.75;;;23.10;45.10;;;;;;4994287;28;20058;-48
2022/08/24 03:51:17;;;;;;;10.23;3.15;;;23.10;45.20;;;;;;4991428;28;20050;-52
2022/08/24 03:53:45;;;;;;;5.22;2.88;;;23.00;45.10;;;;;;5021010;28;20435;-51
2022/08/24 03:56:12;;;;;;;4.68;2.45;;;23.00;45.00;;;;;;5009520;28;20061;-47
2022/08/24 03:58:41;;;;;;;7.43;3.13;;;23.00;45.00;;;;;;5016148;28;20478;-51
2022/08/24 04:01:09;;;;;;;5.50;2.88;;;22.90;44.90;;;;;;5012737;28;20053;-51
2022/08/24 04:03:37;;;;;;;4.72;2.50;;;22.90;44.90;;;;;;5015242;28;20050;-50
2022/08/24 04:06:06;;;;;;;3.90;2.45;;;22.90;44.90;;;;;;5012296;28;20058;-49
2022/08/24 04:08:34;;;;;;;5.25;2.72;;;22.80;45.00;;;;;;5010228;28;20060;-50
2022/08/24 04:11:02;;;;;;;4.53;2.65;;;22.80;45.20;;;;;;5019551;28;20046;-52
2022/08/24 04:13:30;;;;;;;5.18;2.72;;;22.70;45.20;;;;;;5018275;28;20053;-49
2022/08/24 04:16:04;;;;;;;4.22;2.72;;;22.70;45.30;;;;;;5024550;28;20073;-49
2022/08/24 04:18:31;;;;;;;13.00;6.85;;;22.70;45.40;;;;;;5015813;28;20524;-52
2022/08/24 04:20:59;;;;;;;14.90;9.82;;;22.70;45.40;;;;;;5022614;28;20587;-52
2022/08/24 04:23:26;;;;;;;10.02;4.82;;;22.60;45.40;;;;;;5003788;28;20069;-52
2022/08/24 04:25:53;;;;;;;7.60;4.53;;;22.60;45.40;;;;;;5003218;28;20060;-55
2022/08/24 04:28:22;;;;;;;4.82;2.92;;;22.60;45.50;;;;;;5018622;28;20391;-51
2022/08/24 04:30:50;;;;;;;6.72;2.78;;;22.60;45.60;;;;;;5015981;28;20516;-51
2022/08/24 04:33:19;;;;;;;5.30;3.05;;;22.50;45.60;;;;;;5006706;28;20049;-48
2022/08/24 04:35:48;;;;;;;6.60;2.75;;;22.50;45.70;;;;;;5009961;28;20057;-50
2022/08/24 04:38:16;;;;;;;6.47;2.70;;;22.50;45.90;;;;;;5004275;28;20058;-53
2022/08/24 04:40:47;;;;;;;5.95;2.90;;;22.40;45.80;;;;;;5005095;28;20045;-50
2022/08/24 04:43:15;;;;;;;10.32;5.22;;;22.40;45.80;;;;;;4989092;28;20049;-50
2022/08/24 04:45:46;;;;;;;20.38;9.77;;;22.40;45.80;;;;;;5005775;28;20052;-51
2022/08/24 04:48:15;;;;;;;10.77;6.10;;;22.40;46.00;;;;;;5005959;28;20460;-48
2022/08/24 04:50:44;;;;;;;6.07;3.33;;;22.30;46.00;;;;;;4996427;28;20791;-52
2022/08/24 04:53:13;;;;;;;6.15;2.80;;;22.30;46.10;;;;;;5010354;28;20053;-50
2022/08/24 04:55:45;;;;;;;6.80;2.90;;;22.30;46.00;;;;;;4996009;28;20053;-55
2022/08/24 04:58:13;;;;;;;5.00;2.85;;;22.30;46.00;;;;;;4997172;28;20061;-51
2022/08/24 05:00:40;;;;;;;11.07;3.38;;;22.30;46.10;;;;;;4996485;28;20049;-50
2022/08/24 05:03:10;;;;;;;4.47;2.88;;;22.30;46.70;;;;;;5000244;28;20049;-54
2022/08/24 05:05:41;;;;;;;5.32;2.70;;;22.20;46.20;;;;;;5008609;28;20053;-51
2022/08/24 05:08:10;;;;;;;4.88;2.78;;;22.20;46.30;;;;;;5001206;28;20411;-54
2022/08/24 05:10:38;;;;;;;3.85;2.60;;;22.20;46.20;;;;;;5010940;28;20090;-52
2022/08/24 05:13:06;;;;;;;5.18;2.70;;;22.20;46.30;;;;;;5017530;28;20061;-53
2022/08/24 05:15:34;;;;;;;3.55;2.60;;;22.20;46.40;;;;;;5019711;28;20057;-52
2022/08/24 05:18:02;;;;;;;6.07;2.88;;;22.20;46.40;;;;;;5002940;28;20058;-52
2022/08/24 05:20:29;;;;;;;5.55;2.97;;;22.20;46.50;;;;;;4999052;28;20119;-51
2022/08/24 05:22:57;;;;;;;3.95;2.50;;;22.20;46.50;;;;;;5017541;28;20065;-55
2022/08/24 05:25:26;;;;;;;6.13;3.03;;;22.10;46.50;;;;;;5004045;28;20424;-53
2022/08/24 05:27:53;;;;;;;4.70;2.70;;;22.10;46.60;;;;;;5018689;28;20429;-45
2022/08/24 05:30:21;;;;;;;3.70;2.47;;;22.10;46.60;;;;;;5002348;28;20706;-50
2022/08/24 05:32:48;;;;;;;3.53;2.58;;;22.10;46.70;;;;;;4993799;28;20061;-53
2022/08/24 05:35:15;;;;;;;5.25;2.90;;;22.10;46.80;;;;;;5015474;28;20053;-51
2022/08/24 05:37:42;;;;;;;4.88;2.90;;;22.10;46.80;;;;;;5002475;28;20049;-51
2022/08/24 05:40:12;;;;;;;4.38;2.53;;;22.10;47.00;;;;;;5014476;28;20058;-50
2022/08/24 05:42:41;;;;;;;5.22;2.55;;;22.10;47.00;;;;;;5022849;28;20508;-51
2022/08/24 05:45:09;;;;;;;3.97;2.60;;;22.10;47.10;;;;;;5018562;28;20065;-50
2022/08/24 05:47:37;;;;;;;5.85;2.70;;;22.10;47.10;;;;;;5011244;28;20053;-51
2022/08/24 05:50:05;;;;;;;5.70;2.80;;;22.20;47.10;;;;;;5006529;28;20053;-51
2022/08/24 05:52:34;;;;;;;7.95;2.70;;;22.20;47.10;;;;;;4994681;28;20073;-53
2022/08/24 05:55:02;;;;;;;6.55;2.88;;;22.20;47.30;;;;;;5016450;28;20057;-51
2022/08/24 05:57:32;;;;;;;5.68;2.78;;;22.20;47.10;;;;;;4985215;28;20062;-52
2022/08/24 06:00:02;;;;;;;4.65;2.72;;;22.30;47.30;;;;;;5002681;28;20058;-52
2022/08/24 06:02:29;;;;;;;8.05;2.92;;;22.30;47.40;;;;;;5000878;28;20072;-55
2022/08/24 06:04:56;;;;;;;5.43;2.90;;;22.30;47.40;;;;;;5001857;28;20058;-51
2022/08/24 06:07:23;;;;;;;6.22;2.95;;;22.40;47.50;;;;;;4997018;28;20053;-55
2022/08/24 06:09:52;;;;;;;7.15;2.50;;;22.40;47.50;;;;;;4997565;28;20061;-52
2022/08/24 06:12:20;;;;;;;5.07;2.70;;;22.40;47.60;;;;;;5005394;28;20061;-49
2022/08/24 06:14:47;;;;;;;6.10;2.25;;;22.40;47.40;;;;;;5007080;28;20061;-52
2022/08/24 06:17:16;;;;;;;8.90;3.47;;;22.40;47.50;;;;;;4996108;28;20525;-54
2022/08/24 06:19:43;;;;;;;4.35;2.60;;;22.50;47.70;;;;;;5002299;28;20046;-49
2022/08/24 06:22:10;;;;;;;4.93;2.85;;;22.60;47.70;;;;;;5005359;28;20061;-53
2022/08/24 06:27:24;;;;;;;5.75;3.00;;;22.70;47.60;;;;;;4999834;28;20060;-52
2022/08/24 06:29:53;;;;;;;4.70;2.58;;;22.70;47.60;;;;;;4994445;28;20053;-53
2022/08/24 06:32:22;;;;;;;6.13;2.53;;;22.80;47.50;;;;;;5014265;28;20397;-52
2022/08/24 06:34:50;;;;;;;6.82;2.90;;;22.80;47.40;;;;;;5012978;28;20064;-50
2022/08/24 06:37:18;;;;;;;5.50;2.50;;;22.80;47.80;;;;;;5021067;28;20076;-53
2022/08/24 06:39:45;;;;;;;3.40;2.17;;;22.90;47.50;;;;;;5004073;28;20050;-51
2022/08/24 06:42:12;;;;;;;6.63;2.75;;;22.90;47.40;;;;;;4990003;28;20928;-53
2022/08/24 06:44:40;;;;;;;6.78;2.95;;;23.00;47.30;;;;;;5000883;28;20064;-49
2022/08/24 06:47:07;;;;;;;4.80;2.35;;;23.10;47.30;;;;;;5009176;28;20057;-50
2022/08/24 06:49:36;;;;;;;3.65;2.58;;;23.10;47.30;;;;;;4991955;28;20049;-52
2022/08/24 06:52:04;;;;;;;7.28;2.38;;;23.10;47.10;;;;;;4993604;28;20049;-53
2022/08/24 06:54:31;;;;;;;4.05;2.10;;;23.20;47.20;;;;;;4996729;28;20414;-53
2022/08/24 06:56:58;;;;;;;5.65;2.63;;;23.20;46.90;;;;;;5008689;28;20053;-51
2022/08/24 06:59:27;;;;;;;5.15;2.40;;;23.30;46.70;;;;;;5007222;28;20493;-48
2022/08/24 07:01:55;;;;;;;4.20;2.30;;;23.30;46.90;;;;;;5009166;28;20460;-54
2022/08/24 07:04:25;;;;;;;6.85;2.58;;;23.40;46.60;;;;;;5006195;28;20056;-51
2022/08/24 07:06:54;;;;;;;6.55;2.30;;;23.50;46.50;;;;;;5014018;28;21556;-52
2022/08/24 07:09:23;;;;;;;4.05;2.50;;;23.50;46.60;;;;;;4999348;28;20065;-53
2022/08/24 07:11:50;;;;;;;9.18;3.88;;;23.50;46.10;;;;;;5010965;28;20049;-50
2022/08/24 07:14:18;;;;;;;18.15;8.27;;;23.60;45.80;;;;;;5009521;28;20271;-49
2022/08/24 07:16:45;;;;;;;8.98;5.75;;;23.60;45.60;;;;;;5013377;28;20045;-51
2022/08/24 07:19:13;;;;;;;6.30;3.30;;;23.70;45.30;;;;;;5014033;28;20049;-49
2022/08/24 07:21:41;;;;;;;6.10;3.20;;;23.70;45.50;;;;;;5016399;28;20057;-52
2022/08/24 07:24:09;;;;;;;4.80;2.22;;;23.80;45.50;;;;;;5004470;28;20062;-50
2022/08/24 07:26:38;;;;;;;3.58;2.10;;;23.80;45.20;;;;;;4998370;28;20053;-50
2022/08/24 07:29:09;;;;;;;4.45;1.95;;;23.90;45.10;;;;;;4999717;28;20045;-53
2022/08/24 07:31:39;;;;;;;5.63;2.03;;;24.00;45.30;;;;;;5008022;28;20080;-49
2022/08/24 07:34:08;;;;;;;7.00;2.30;;;24.10;45.00;;;;;;5020655;28;20536;-49
2022/08/24 07:36:37;;;;;;;3.88;1.80;;;24.10;44.80;;;;;;5020980;28;20421;-50
2022/08/24 07:39:05;;;;;;;3.13;1.88;;;24.20;44.80;;;;;;5021861;28;20050;-51
2022/08/24 07:41:38;;;;;;;3.85;2.10;;;24.30;44.60;;;;;;5018289;28;20049;-51
2022/08/24 07:44:05;;;;;;;3.17;1.70;;;24.40;44.40;;;;;;5017313;28;20131;-51
2022/08/24 07:46:32;;;;;;;4.32;2.28;;;24.40;44.40;;;;;;5006297;28;20053;-54
2022/08/24 07:48:59;;;;;;;3.63;1.77;;;24.50;44.30;;;;;;5015330;28;20057;-53
2022/08/24 07:51:27;;;;;;;4.97;2.10;;;24.60;44.30;;;;;;5013231;28;20061;-51
2022/08/24 07:53:54;;;;;;;3.92;2.22;;;24.60;44.00;;;;;;5016527;28;20057;-53
2022/08/24 07:56:21;;;;;;;3.88;2.17;;;24.70;43.90;;;;;;5011220;28;20641;-54
2022/08/24 07:58:50;;;;;;;3.80;1.70;;;24.80;43.70;;;;;;5024235;28;20057;-52
2022/08/24 08:01:18;;;;;;;3.22;2.03;;;24.80;43.60;;;;;;5003724;28;20049;-52
2022/08/24 08:03:45;;;;;;;25.58;5.18;;;24.90;43.60;;;;;;5004534;28;20049;-52
2022/08/24 08:06:12;;;;;;;10.43;3.42;;;25.00;43.40;;;;;;5020075;28;20060;-52
2022/08/24 08:08:41;;;;;;;3.55;2.28;;;25.00;43.20;;;;;;5018252;28;20053;-55
2022/08/24 08:11:09;;;;;;;3.33;1.80;;;25.10;42.90;;;;;;5001552;28;20853;-55
2022/08/24 08:13:37;;;;;;;4.30;2.10;;;25.20;42.80;;;;;;5010524;28;20049;-53
2022/08/24 08:16:07;;;;;;;4.40;1.95;;;25.20;42.60;;;;;;5006571;28;20080;-52
2022/08/24 08:18:35;;;;;;;4.28;1.90;;;25.40;42.80;;;;;;5018133;28;20060;-54
2022/08/24 08:21:02;;;;;;;3.22;1.85;;;25.40;42.40;;;;;;5013961;28;20409;-53
2022/08/24 08:26:19;;;;;;;5.25;2.03;;;25.60;42.00;;;;;;5016785;28;20540;-52
2022/08/24 08:28:46;;;;;;;4.93;2.05;;;25.70;42.00;;;;;;5021661;28;20069;-53
2022/08/24 08:31:14;;;;;;;4.90;1.88;;;25.70;41.70;;;;;;5017339;28;20061;-53
2022/08/24 08:33:41;;;;;;;3.97;1.92;;;25.80;41.60;;;;;;5021800;28;20532;-52
2022/08/24 08:36:13;;;;;;;4.28;1.88;;;25.90;41.50;;;;;;5023028;28;20057;-53
2022/08/24 08:38:41;;;;;;;4.13;2.05;;;26.00;41.20;;;;;;5021980;28;20513;-51
2022/08/24 08:41:39;;;;;;;4.78;1.90;;;26.00;41.00;;;;;;5016939;28;20330;-53
2022/08/24 08:44:14;;;;;;;2.63;1.92;;;26.10;40.50;;;;;;5020933;28;20052;-53
2022/08/24 08:46:55;;;;;;;7.38;2.10;;;26.20;40.50;;;;;;5016985;28;20432;-52
2022/08/24 08:49:45;;;;;;;3.60;2.10;;;26.30;40.30;;;;;;5022936;28;20057;-55
2022/08/24 08:52:50;;;;;;;4.05;2.20;;;26.40;40.40;;;;;;5020568;28;20060;-54
2022/08/24 08:55:27;;;;;;;2.55;1.83;;;26.40;40.20;;;;;;5022908;28;20057;-52
2022/08/24 08:58:09;;;;;;;4.30;1.85;;;26.50;40.20;;;;;;5015506;28;20053;-55
2022/08/24 09:00:49;;;;;;;5.00;2.38;;;26.70;40.10;;;;;;4997746;28;20060;-55
2022/08/24 09:03:35;;;;;;;3.70;1.80;;;26.70;39.80;;;;;;4995290;28;20049;-53
2022/08/24 09:06:31;;;;;;;8.93;2.15;;;26.80;39.80;;;;;;5017803;28;20413;-55
2022/08/24 09:09:10;;;;;;;6.32;2.67;;;26.90;39.50;;;;;;5013687;28;20057;-57
2022/08/24 09:11:53;;;;;;;8.50;2.60;;;27.00;39.00;;;;;;5015886;28;20049;-53
2022/08/24 09:14:44;;;;;;;6.82;1.90;;;27.10;38.90;;;;;;5016949;28;20429;-53
2022/08/24 09:17:37;;;;;;;2.42;1.80;;;27.20;39.00;;;;;;5022317;28;20057;-54
2022/08/24 09:20:27;;;;;;;5.30;2.10;;;27.30;39.20;;;;;;5017539;28;20066;-55
2022/08/24 09:23:07;;;;;;;4.50;2.00;;;27.40;38.70;;;;;;5018803;28;20073;-52
2022/08/24 09:25:44;;;;;;;3.97;2.15;;;27.40;38.60;;;;;;5020583;28;20057;-55
2022/08/24 09:28:26;;;;;;;4.45;2.22;;;27.50;38.30;;;;;;5014664;28;20054;-53
2022/08/24 09:31:28;;;;;;;3.47;2.28;;;27.60;38.30;;;;;;5015016;28;20522;-56
2022/08/24 09:34:18;;;;;;;4.90;2.10;;;27.70;37.80;;;;;;5018530;28;20383;-54
2022/08/24 09:36:59;;;;;;;4.28;1.98;;;27.70;37.80;;;;;;5015907;28;20050;-55
2022/08/24 09:39:45;;;;;;;7.72;2.25;;;27.80;37.60;;;;;;5017425;28;20383;-56
2022/08/24 09:42:44;;;;;;;5.70;2.03;;;27.80;37.50;;;;;;5015031;28;20517;-56
2022/08/24 09:45:41;;;;;;;7.15;2.58;;;27.90;37.60;;;;;;5016687;28;20477;-51
2022/08/24 09:48:31;;;;;;;7.00;2.28;;;28.00;36.70;;;;;;5021625;28;20057;-55
2022/08/24 09:51:31;;;;;;;5.00;2.15;;;28.00;36.70;;;;;;5013988;28;20480;-54
2022/08/24 09:54:32;;;;;;;6.93;2.30;;;28.10;36.90;;;;;;5015804;28;20045;-54
2022/08/24 09:57:28;;;;;;;5.32;2.25;;;28.10;36.80;;;;;;5001855;28;20060;-52
2022/08/24 10:00:10;;;;;;;3.85;2.20;;;28.20;36.70;;;;;;5018328;28;20054;-56
2022/08/24 10:02:59;;;;;;;3.78;2.30;;;28.30;36.50;;;;;;5020892;28;20057;-53
2022/08/24 10:05:42;;;;;;;5.43;2.42;;;28.30;36.10;;;;;;5012418;28;20049;-53
2022/08/24 10:08:19;;;;;;;5.20;2.05;;;28.40;36.70;;;;;;5017791;28;20054;-54
2022/08/24 10:10:51;;;;;;;4.38;1.95;;;28.40;36.80;;;;;;5014848;28;20066;-55
2022/08/24 10:13:30;;;;;;;5.20;2.40;;;28.50;36.70;;;;;;5016524;28;20612;-56
2022/08/24 10:16:14;;;;;;;3.55;2.05;;;28.60;36.30;;;;;;5019675;28;20049;-53
2022/08/24 10:18:56;;;;;;;7.93;1.75;;;28.60;35.70;;;;;;5019340;28;20061;-55
2022/08/24 10:21:38;;;;;;;2.63;1.65;;;28.70;36.00;;;;;;5018646;28;20060;-55
2022/08/24 10:24:34;;;;;;;7.05;2.08;;;28.70;35.70;;;;;;5020173;28;20417;-54
2022/08/24 10:27:23;;;;;;;4.90;2.22;;;28.80;35.00;;;;;;5018437;28;20331;-55
2022/08/24 10:30:24;;;;;;;3.40;2.20;;;28.90;35.70;;;;;;5015773;28;20056;-56
2022/08/24 10:33:05;;;;;;;5.32;2.20;;;29.00;35.40;;;;;;5012931;28;20421;-53
2022/08/24 10:35:36;;;;;;;4.38;2.05;;;29.00;34.80;;;;;;5016109;28;20061;-56
2022/08/24 10:41:45;;;;;;;4.50;2.20;;;29.10;34.40;;;;;;5007881;28;20421;-54
2022/08/24 10:44:42;;;;;;;5.50;2.28;;;29.20;34.20;;;;;;5007805;28;20053;-56
2022/08/24 10:47:20;;;;;;;3.20;1.98;;;29.30;34.60;;;;;;5020511;28;20435;-53
2022/08/24 10:50:24;;;;;;;3.92;2.03;;;29.40;34.30;;;;;;5013831;28;20498;-54
2022/08/24 10:53:28;;;;;;;2.95;2.05;;;29.40;34.20;;;;;;5018529;28;20057;-53
2022/08/24 10:56:06;;;;;;;4.63;2.00;;;29.50;33.90;;;;;;5017711;28;20053;-52
2022/08/24 10:58:48;;;;;;;5.55;2.00;;;29.60;34.00;;;;;;5013793;28;20057;-54
2022/08/24 11:01:25;;;;;;;5.47;1.95;;;29.70;34.10;;;;;;5016150;28;20417;-57
2022/08/24 11:04:01;;;;;;;5.43;2.40;;;29.70;33.60;;;;;;5018504;28;20057;-56
2022/08/24 11:06:32;;;;;;;3.50;1.95;;;29.80;33.40;;;;;;5015609;28;20496;-55
2022/08/24 11:09:06;;;;;;;5.47;2.40;;;29.90;33.30;;;;;;5017266;28;20065;-56
2022/08/24 11:11:36;;;;;;;4.82;2.28;;;29.90;32.90;;;;;;5014685;28;20402;-57
2022/08/24 11:14:06;;;;;;;3.63;2.10;;;30.00;33.20;;;;;;5013416;28;20764;-58
2022/08/24 11:16:37;;;;;;;4.90;2.08;;;30.10;33.10;;;;;;5016299;28;20052;-57
2022/08/24 11:19:09;;;;;;;4.60;2.38;;;30.10;33.00;;;;;;5018279;28;20069;-57
2022/08/24 11:21:47;;;;;;;3.40;1.98;;;30.20;32.40;;;;;;5010629;28;20054;-57
2022/08/24 11:24:28;;;;;;;4.95;1.83;;;30.20;32.40;;;;;;5020751;28;20057;-55
2022/08/24 11:26:58;;;;;;;4.97;2.05;;;30.30;32.40;;;;;;5019714;28;20493;-57
2022/08/24 11:29:49;;;;;;;4.70;1.85;;;30.40;32.70;;;;;;5016860;28;20409;-56
2022/08/24 11:32:27;;;;;;;3.08;2.13;;;30.40;31.80;;;;;;5013700;28;20057;-56
2022/08/24 11:35:01;;;;;;;2.75;1.88;;;30.50;31.90;;;;;;5014839;28;20061;-56
2022/08/24 11:37:33;;;;;;;3.60;2.00;;;30.50;32.20;;;;;;5018606;28;20490;-56
2022/08/24 11:40:01;;;;;;;3.40;2.05;;;30.60;32.10;;;;;;5014420;28;20057;-54
2022/08/24 11:42:40;;;;;;;3.65;1.95;;;30.60;31.70;;;;;;5016997;28;20065;-58
2022/08/24 11:45:15;;;;;;;5.40;2.10;;;30.70;31.30;;;;;;5011448;28;20056;-57
2022/08/24 11:47:54;;;;;;;3.90;2.38;;;30.70;32.00;;;;;;5014523;28;20061;-53
2022/08/24 11:50:32;;;;;;;4.50;2.42;;;30.80;31.10;;;;;;5012597;28;20069;-56
2022/08/24 11:53:10;;;;;;;3.13;1.90;;;30.80;30.70;;;;;;5010653;28;20520;-56
2022/08/24 11:55:44;;;;;;;3.72;2.03;;;30.90;31.20;;;;;;5016126;28;20621;-52
2022/08/24 11:58:17;;;;;;;4.25;2.00;;;31.00;31.00;;;;;;5016058;28;20066;-55
2022/08/24 12:00:47;;;;;;;;;;;31.00;31.10;;;;;;5010876;28;20058;-55
2022/08/24 12:03:31;;;;;;;10.73;2.38;;;31.10;31.60;;;;;;5012162;28;19936;-57
2022/08/24 12:06:06;;;;;;;3.97;1.90;;;31.10;30.70;;;;;;5009302;28;20053;-56
2022/08/24 12:08:39;;;;;;;4.65;2.13;;;31.20;30.90;;;;;;5002593;28;20054;-53
2022/08/24 12:11:16;;;;;;;3.07;1.90;;;31.20;30.20;;;;;;5010840;28;20524;-57
2022/08/24 12:13:49;;;;;;;4.90;2.20;;;31.20;30.10;;;;;;5011522;28;20053;-56
2022/08/24 12:16:19;;;;;;;;;;;31.20;30.10;;;;;;5012936;28;20054;-58
2022/08/24 12:18:53;;;;;;;3.03;1.90;;;31.30;30.80;;;;;;5020999;28;20396;-57
2022/08/24 12:21:25;;;;;;;8.88;2.15;;;31.30;29.90;;;;;;5017981;28;20528;-56
2022/08/24 12:23:58;;;;;;;9.63;2.83;;;31.30;29.10;;;;;;5016980;28;20413;-58
2022/08/24 12:26:29;;;;;;;4.15;2.45;;;31.30;28.80;;;;;;5021291;28;20060;-58
2022/08/24 12:29:03;;;;;;;8.05;2.35;;;31.40;28.70;;;;;;5017407;28;20053;-56
2022/08/24 12:31:39;;;;;;;5.75;2.30;;;31.50;28.20;;;;;;5010853;28;20068;-54
2022/08/24 12:34:11;;;;;;;5.20;2.10;;;31.60;28.00;;;;;;5008378;28;20517;-54
2022/08/24 12:36:50;;;;;;;6.75;2.65;;;31.60;28.70;;;;;;5021244;28;20053;-55
2022/08/24 12:39:22;;;;;;;4.88;2.30;;;31.70;28.70;;;;;;5021198;28;20480;-56
2022/08/24 12:41:58;;;;;;;3.00;2.08;;;31.80;28.10;;;;;;5019786;28;20058;-57
2022/08/24 12:44:34;;;;;;;2.85;1.85;;;31.90;28.90;;;;;;5018010;28;20053;-56
2022/08/24 12:47:02;;;;;;;3.42;1.80;;;32.00;28.90;;;;;;5020882;28;20068;-53
2022/08/24 12:49:37;;;;;;;4.60;2.13;;;32.00;28.50;;;;;;5023013;28;20057;-56
2022/08/24 12:52:24;;;;;;;3.90;2.22;;;32.10;28.80;;;;;;5021661;28;20054;-56
2022/08/24 12:55:05;;;;;;;5.38;2.17;;;32.10;28.60;;;;;;5018273;28;20402;-55
2022/08/24 12:57:43;;;;;;;3.28;1.88;;;32.10;28.70;;;;;;5015212;28;20053;-54
2022/08/24 13:00:19;;;;;;;3.33;2.22;;;32.20;29.00;;;;;;5007886;28;20694;-54
2022/08/24 13:02:56;;;;;;;4.20;1.98;;;32.20;28.80;;;;;;5018349;28;20062;-54
2022/08/24 13:05:24;;;;;;;2.50;2.00;;;32.20;28.60;;;;;;5010286;28;20049;-55
2022/08/24 13:08:08;;;;;;;5.25;2.20;;;32.20;28.70;;;;;;5015075;28;20064;-58
2022/08/24 13:10:41;;;;;;;2.88;1.98;;;32.20;28.30;;;;;;5019521;28;20056;-55
2022/08/24 13:13:19;;;;;;;3.60;2.17;;;32.20;28.30;;;;;;5022158;28;20080;-56
2022/08/24 13:15:59;;;;;;;3.03;2.08;;;32.20;28.40;;;;;;5019556;28;20053;-56
2022/08/24 13:18:49;;;;;;;3.75;2.13;;;32.20;28.30;;;;;;5023798;28;20050;-55
2022/08/24 13:21:36;;;;;;;3.83;2.30;;;32.20;28.40;;;;;;5013500;28;20409;-58
2022/08/24 13:24:51;;;;;;;4.15;2.22;;;32.20;28.30;;;;;;5016811;28;20061;-56
2022/08/24 13:28:05;;;;;;;3.13;2.00;;;32.20;28.50;;;;;;5022426;28;20516;-55